Time;durP1;ratioP1;P1;durP2;ratioP2;P2;SDS_P1;SDS_P2;PMS_P1;PMS_P2;Temp;Humidity;BMP_temperature;BMP_pressure;BME280_temperature;BME280_humidity;BME280_pressure;Samples;Min_cycle;Max_cycle;Signal;HPM_P1;HPM_P2
2023/07/05 00:02:56;;;;;;;6.85;3.70;;;;;15.90;99855.00;;;;10540869;28;20554;-76
2023/07/05 00:07:57;;;;;;;5.60;3.42;;;;;15.90;99891.00;;;;10509983;28;20209;-73
2023/07/05 00:13:01;;;;;;;5.55;3.05;;;;;15.90;99899.00;;;;10523727;28;20196;-76
2023/07/05 00:18:03;;;;;;;2.03;1.65;;;;;15.80;99898.00;;;;10535520;28;20212;-77
2023/07/05 00:23:05;;;;;;;6.20;1.63;;;;;15.50;99907.00;;;;10507262;28;20224;-78
2023/07/05 00:28:06;;;;;;;4.03;0.90;;;;;15.20;99914.00;;;;10525701;28;20201;-79
2023/07/05 00:33:08;;;;;;;1.50;1.00;;;;;15.00;99926.00;;;;10526072;28;20246;-73
2023/07/05 00:38:09;;;;;;;2.80;1.20;;;;;14.80;99902.00;;;;10505025;28;20201;-77
2023/07/05 00:43:11;;;;;;;5.70;1.70;;;;;14.70;99906.00;;;;10505441;28;20221;-77
2023/07/05 00:48:14;;;;;;;2.47;1.50;;;;;14.60;99925.00;;;;10523172;28;20682;-79
2023/07/05 00:53:17;;;;;;;2.07;1.10;;;;;14.50;99933.00;;;;10501961;28;20335;-77
2023/07/05 00:58:21;;;;;;;1.80;1.50;;;;;14.30;99962.00;;;;10521732;28;20693;-79
2023/07/05 01:03:25;;;;;;;2.13;1.53;;;;;14.20;99961.00;;;;10491478;28;20251;-79
2023/07/05 01:08:27;;;;;;;2.23;1.40;;;;;14.10;99966.00;;;;10512495;28;20714;-78
2023/07/05 01:13:36;;;;;;;3.27;2.37;;;;;14.00;99991.00;;;;10514715;28;20221;-74
2023/07/05 01:18:57;;;;;;;3.67;2.70;;;;;13.80;100004.00;;;;10521543;28;20193;-78
2023/07/05 01:24:25;;;;;;;5.93;3.20;;;;;13.60;100008.00;;;;10526297;28;20269;-74
2023/07/05 01:29:53;;;;;;;7.40;3.50;;;;;13.50;100025.00;;;;10520696;28;20469;-73
2023/07/05 01:35:12;;;;;;;6.53;3.40;;;;;13.50;100024.00;;;;10523443;28;20250;-77
2023/07/05 01:40:39;;;;;;;5.80;4.17;;;;;13.50;100008.00;;;;10519099;28;20225;-77
2023/07/05 01:46:13;;;;;;;9.17;4.70;;;;;13.50;100022.00;;;;10496489;28;20216;-76
2023/07/05 01:51:34;;;;;;;7.90;4.60;;;;;13.40;100026.00;;;;10512593;28;20219;-79
2023/07/05 01:57:11;;;;;;;6.00;4.40;;;;;13.50;100029.00;;;;10524332;28;20197;-79
2023/07/05 02:02:14;;;;;;;6.47;3.90;;;;;13.50;100032.00;;;;10489108;28;20255;-79
2023/07/05 02:07:15;;;;;;;8.27;4.33;;;;;13.50;100026.00;;;;10509509;28;20213;-74
2023/07/05 02:12:17;;;;;;;7.30;4.43;;;;;13.50;100008.00;;;;10538050;28;20204;-78
2023/07/05 02:17:19;;;;;;;8.40;4.10;;;;;13.40;100029.00;;;;10527928;28;20199;-77
2023/07/05 02:22:21;;;;;;;8.60;4.60;;;;;13.40;100023.00;;;;10514676;28;20203;-77
2023/07/05 02:27:22;;;;;;;6.60;3.77;;;;;13.40;100021.00;;;;10528145;28;20217;-78
2023/07/05 02:32:24;;;;;;;11.80;4.50;;;;;13.50;100034.00;;;;10500921;28;20246;-78
2023/07/05 02:37:26;;;;;;;9.50;4.57;;;;;13.50;100024.00;;;;10513735;28;20627;-74
2023/07/05 02:42:27;;;;;;;7.40;4.50;;;;;13.50;100026.00;;;;10517167;28;20200;-75
2023/07/05 02:47:29;;;;;;;7.47;4.97;;;;;13.50;100014.00;;;;10517855;28;20227;-78
2023/07/05 02:52:30;;;;;;;8.37;5.30;;;;;13.50;100030.00;;;;10536049;28;20208;-76
2023/07/05 02:57:32;;;;;;;10.13;4.63;;;;;13.60;100020.00;;;;10513995;28;20200;-79
2023/07/05 03:02:34;;;;;;;9.80;5.07;;;;;13.50;100023.00;;;;10527141;28;20683;-74
2023/07/05 03:07:36;;;;;;;7.10;4.90;;;;;13.30;100016.00;;;;10493597;28;20223;-74
2023/07/05 03:12:37;;;;;;;12.17;5.00;;;;;13.40;100026.00;;;;10529084;28;20221;-75
2023/07/05 03:17:39;;;;;;;8.60;5.10;;;;;13.30;100012.00;;;;10520611;28;20697;-79
2023/07/05 03:22:40;;;;;;;13.50;5.10;;;;;13.30;99997.00;;;;10526116;28;20667;-75
2023/07/05 03:27:41;;;;;;;7.27;5.27;;;;;13.30;100009.00;;;;10506426;28;20228;-74
2023/07/05 03:32:43;;;;;;;7.70;5.33;;;;;13.30;100018.00;;;;10535778;28;20204;-76
2023/07/05 03:37:45;;;;;;;8.97;6.07;;;;;13.30;100021.00;;;;10529418;28;20326;-74
2023/07/05 03:42:46;;;;;;;8.77;5.17;;;;;13.30;100001.00;;;;10521678;28;20205;-75
2023/07/05 03:47:47;;;;;;;7.63;5.13;;;;;13.10;100016.00;;;;10465406;28;20268;-78
2023/07/05 03:52:48;;;;;;;8.20;4.97;;;;;13.00;100027.00;;;;10537972;28;20209;-79
2023/07/05 03:57:50;;;;;;;10.17;5.10;;;;;13.10;100033.00;;;;10533037;28;20196;-79
2023/07/05 04:02:51;;;;;;;10.37;5.53;;;;;13.20;100031.00;;;;10540071;28;20682;-74
2023/07/05 04:07:52;;;;;;;8.20;5.10;;;;;13.20;100030.00;;;;10510802;28;20220;-82
2023/07/05 04:12:54;;;;;;;5.20;4.07;;;;;13.40;100030.00;;;;10517583;28;20206;-79
2023/07/05 04:17:55;;;;;;;7.70;4.37;;;;;13.50;100025.00;;;;10512887;28;20210;-75
2023/07/05 04:22:59;;;;;;;6.07;4.03;;;;;13.50;100049.00;;;;10522540;28;20189;-75
2023/07/05 04:28:01;;;;;;;6.90;4.13;;;;;13.50;100055.00;;;;10514673;28;20281;-77
2023/07/05 04:33:02;;;;;;;7.60;4.37;;;;;13.70;100046.00;;;;10540532;28;20196;-74
2023/07/05 04:38:03;;;;;;;12.37;4.30;;;;;13.90;100068.00;;;;10507319;28;20242;-79
2023/07/05 04:43:05;;;;;;;6.03;3.97;;;;;14.00;100084.00;;;;10542270;28;21108;-76
2023/07/05 04:48:06;;;;;;;8.53;3.67;;;;;13.90;100097.00;;;;10502339;28;20209;-78
2023/07/05 04:53:07;;;;;;;6.67;3.27;;;;;14.00;100094.00;;;;10537521;28;20585;-73
2023/07/05 04:58:09;;;;;;;4.90;2.93;;;;;14.10;100104.00;;;;10530789;28;20200;-78
2023/07/05 05:03:10;;;;;;;12.20;3.57;;;;;14.00;100126.00;;;;10510394;28;20212;-75
2023/07/05 05:08:12;;;;;;;6.00;2.73;;;;;14.30;100127.00;;;;10502630;28;20197;-78
2023/07/05 05:13:13;;;;;;;8.93;3.47;;;;;14.40;100136.00;;;;10491198;28;20232;-75
2023/07/05 05:18:15;;;;;;;7.00;2.90;;;;;14.60;100137.00;;;;10519091;28;20197;-74
2023/07/05 05:23:16;;;;;;;9.10;2.90;;;;;14.50;100142.00;;;;10531969;28;20650;-78
2023/07/05 05:28:17;;;;;;;6.07;3.07;;;;;14.30;100151.00;;;;10503705;28;20670;-78
2023/07/05 05:33:19;;;;;;;5.33;2.83;;;;;14.20;100165.00;;;;10508308;28;20212;-78
2023/07/05 05:38:20;;;;;;;4.07;2.20;;;;;14.00;100168.00;;;;10500408;28;20598;-75
2023/07/05 05:43:21;;;;;;;7.60;2.20;;;;;14.30;100184.00;;;;10497657;28;20221;-79
2023/07/05 05:48:23;;;;;;;5.90;2.20;;;;;14.30;100196.00;;;;10531178;28;20681;-79
2023/07/05 05:53:24;;;;;;;5.53;2.50;;;;;14.80;100188.00;;;;10528294;28;20197;-78
2023/07/05 05:58:26;;;;;;;6.23;2.40;;;;;15.70;100192.00;;;;10496196;28;20224;-76
2023/07/05 06:03:28;;;;;;;6.13;2.35;;;;;15.80;100205.00;;;;10489503;28;20218;-76
2023/07/05 06:08:29;;;;;;;4.72;2.28;;;;;16.10;100212.00;;;;10526379;28;20689;-76
2023/07/05 06:13:32;;;;;;;6.05;2.83;;;;;15.70;100222.00;;;;10523994;28;20191;-75
2023/07/05 06:18:33;;;;;;;4.50;2.05;;;;;15.80;100228.00;;;;10538964;28;20199;-77
2023/07/05 06:23:34;;;;;;;3.95;1.75;;;;;16.10;100224.00;;;;10551392;28;20244;-82
2023/07/05 06:28:36;;;;;;;6.72;2.58;;;;;17.10;100222.00;;;;10523610;28;20208;-78
2023/07/05 06:33:38;;;;;;;6.60;2.13;;;;;17.60;100229.00;;;;10539302;28;20193;-78
2023/07/05 06:38:40;;;;;;;4.38;2.03;;;;;17.90;100235.00;;;;10515140;28;20205;-78
2023/07/05 06:43:41;;;;;;;7.63;3.40;;;;;18.40;100241.00;;;;10511117;28;20209;-75
2023/07/05 06:48:45;;;;;;;5.88;2.25;;;;;18.60;100239.00;;;;10494013;28;20266;-79
2023/07/05 06:53:46;;;;;;;5.68;2.15;;;;;18.90;100248.00;;;;10494490;28;20197;-84
2023/07/05 06:58:51;;;;;;;7.18;1.95;;;;;19.60;100259.00;;;;10515554;28;20193;-85
2023/07/05 07:03:52;;;;;;;5.45;2.08;;;;;19.60;100259.00;;;;10536079;28;20287;-82
2023/07/05 07:08:54;;;;;;;5.15;1.98;;;;;20.20;100262.00;;;;10546024;28;20227;-85
2023/07/05 07:13:55;;;;;;;7.75;1.85;;;;;20.20;100282.00;;;;10514970;28;20595;-83
2023/07/05 07:18:56;;;;;;;7.70;2.60;;;;;20.50;100288.00;;;;10500973;28;20670;-77
2023/07/05 07:23:58;;;;;;;8.32;2.28;;;;;19.70;100282.00;;;;10529615;28;20212;-82
2023/07/05 07:28:59;;;;;;;9.10;2.30;;;;;19.90;100301.00;;;;10509894;28;20202;-84
2023/07/05 07:34:02;;;;;;;11.88;2.55;;;;;20.60;100290.00;;;;10539309;28;20196;-83
2023/07/05 07:39:04;;;;;;;5.95;1.85;;;;;20.60;100304.00;;;;10544739;28;20189;-86
2023/07/05 07:44:08;;;;;;;11.02;2.30;;;;;20.50;100321.00;;;;10507915;28;20213;-85
2023/07/05 07:49:10;;;;;;;8.68;2.03;;;;;20.60;100320.00;;;;10502039;28;20288;-84
2023/07/05 07:54:17;;;;;;;6.97;2.30;;;;;21.20;100337.00;;;;10539394;28;20200;-85
2023/07/05 07:59:18;;;;;;;6.60;2.13;;;;;21.80;100334.00;;;;10506857;28;20205;-85
2023/07/05 08:04:20;;;;;;;6.45;2.08;;;;;22.20;100346.00;;;;10518378;28;20228;-85
2023/07/05 08:09:27;;;;;;;6.75;2.15;;;;;22.40;100356.00;;;;10549929;28;20231;-84
2023/07/05 08:14:28;;;;;;;4.35;1.90;;;;;21.80;100372.00;;;;10536406;28;20697;-85
2023/07/05 08:19:30;;;;;;;9.82;1.98;;;;;21.20;100374.00;;;;10500462;28;20216;-81
2023/07/05 08:24:32;;;;;;;6.03;1.20;;;;;21.30;100390.00;;;;10507663;28;20552;-81
2023/07/05 08:29:33;;;;;;;4.50;1.35;;;;;21.70;100399.00;;;;10526481;28;20570;-80
2023/07/05 08:34:35;;;;;;;4.20;1.35;;;;;22.70;100393.00;;;;10510372;28;20673;-84
2023/07/05 08:39:36;;;;;;;4.00;1.50;;;;;22.40;100396.00;;;;10528597;28;20211;-88
2023/07/05 08:44:55;;;;;;;4.30;1.20;;;;;22.10;100417.00;;;;10488344;28;20705;-86
2023/07/05 08:50:14;;;;;;;8.88;1.70;;;;;21.70;100423.00;;;;10527444;28;20201;-78
2023/07/05 08:55:29;;;;;;;5.95;2.28;;;;;21.90;100442.00;;;;10525819;28;20295;-77
2023/07/05 09:00:58;;;;;;;3.90;1.38;;;;;22.30;100435.00;;;;10489059;28;20200;-76
2023/07/05 09:06:03;;;;;;;7.03;1.52;;;;;23.10;100439.00;;;;10519909;28;20270;-75
2023/07/05 09:11:12;;;;;;;7.70;1.90;;;;;23.00;100450.00;;;;10523283;28;20193;-75
2023/07/05 09:16:48;;;;;;;5.82;1.45;;;;;23.70;100450.00;;;;10529280;28;20321;-74
2023/07/05 09:21:58;;;;;;;5.88;1.60;;;;;22.30;100460.00;;;;10529482;28;20211;-76
2023/07/05 09:27:17;;;;;;;6.13;1.83;;;;;23.70;100445.00;;;;10529088;28;20323;-74
2023/07/05 09:32:24;;;;;;;4.53;1.27;;;;;25.40;100463.00;;;;10512636;28;20291;-78
2023/07/05 09:37:30;;;;;;;4.78;1.90;;;;;24.50;100474.00;;;;10524157;28;20197;-74
2023/07/05 09:42:45;;;;;;;7.13;1.55;;;;;25.60;100462.00;;;;10506490;28;20205;-74
2023/07/05 09:47:50;;;;;;;9.38;1.92;;;;;24.40;100483.00;;;;10468910;28;20228;-76
2023/07/05 09:52:58;;;;;;;6.50;1.83;;;;;23.80;100472.00;;;;10529862;28;20204;-75
2023/07/05 09:57:59;;;;;;;6.05;2.00;;;;;24.90;100491.00;;;;10501811;28;20566;-74
2023/07/05 10:03:10;;;;;;;6.68;1.92;;;;;26.20;100500.00;;;;10509988;28;20604;-75
2023/07/05 10:08:16;;;;;;;5.15;1.95;;;;;26.50;100503.00;;;;10525537;28;20208;-87
2023/07/05 10:13:25;;;;;;;6.43;2.20;;;;;26.20;100512.00;;;;10547347;28;20544;-87
2023/07/05 10:18:31;;;;;;;11.48;2.30;;;;;27.50;100506.00;;;;10530642;28;20243;-86
2023/07/05 10:23:34;;;;;;;10.55;2.03;;;;;25.20;100528.00;;;;10525814;28;20200;-86
2023/07/05 10:28:37;;;;;;;5.80;1.90;;;;;23.60;100493.00;;;;10523187;28;20197;-80
2023/07/05 10:33:41;;;;;;;5.32;1.98;;;;;23.50;100505.00;;;;10514728;28;20558;-82
2023/07/05 10:38:45;;;;;;;5.75;1.42;;;;;26.20;100519.00;;;;10488350;28;20205;-79
2023/07/05 10:43:59;;;;;;;6.38;1.80;;;;;26.40;100515.00;;;;10535827;28;20722;-80
2023/07/05 10:49:02;;;;;;;4.63;1.45;;;;;26.50;100521.00;;;;10507879;28;20208;-81
2023/07/05 10:54:30;;;;;;;6.28;1.95;;;;;24.60;100539.00;;;;10518822;28;20193;-80
2023/07/05 10:59:39;;;;;;;5.05;2.00;;;;;23.90;100530.00;;;;10523579;28;20232;-81
2023/07/05 11:04:44;;;;;;;4.35;1.90;;;;;22.60;100544.00;;;;10526795;28;20217;-81
2023/07/05 11:09:46;;;;;;;8.00;1.73;;;;;21.50;100546.00;;;;10527843;28;20225;-81
2023/07/05 11:14:48;;;;;;;7.88;2.10;;;;;23.40;100545.00;;;;10496729;28;20266;-81
2023/07/05 11:19:50;;;;;;;6.55;2.22;;;;;24.20;100531.00;;;;10515952;28;20208;-81
2023/07/05 11:24:51;;;;;;;6.88;2.00;;;;;24.30;100541.00;;;;10538591;28;20209;-80
2023/07/05 11:29:53;;;;;;;6.95;1.58;;;;;25.20;100544.00;;;;10538501;28;20192;-81
2023/07/05 11:34:55;;;;;;;6.28;1.80;;;;;23.60;100552.00;;;;10519560;28;20193;-82
2023/07/05 11:39:57;;;;;;;5.47;1.83;;;;;23.50;100557.00;;;;10510047;28;20669;-81
2023/07/05 11:44:58;;;;;;;3.78;1.80;;;;;22.50;100566.00;;;;10500044;28;20213;-82
2023/07/05 11:50:09;;;;;;;5.65;1.90;;;;;24.00;100583.00;;;;10519346;28;20197;-81
2023/07/05 11:55:18;;;;;;;5.03;1.63;;;;;23.00;100596.00;;;;10525893;28;20625;-80
2023/07/05 12:00:35;;;;;;;3.83;1.90;;;;;22.40;100588.00;;;;10506239;28;20197;-82
2023/07/05 12:05:37;;;;;;;5.70;1.90;;;;;24.70;100591.00;;;;10487325;28;20223;-81
2023/07/05 12:10:41;;;;;;;5.57;1.60;;;;;23.80;100600.00;;;;10531317;28;20287;-81
2023/07/05 12:15:42;;;;;;;2.85;1.70;;;;;22.60;100599.00;;;;10516014;28;20217;-82
2023/07/05 12:20:48;;;;;;;6.50;2.10;;;;;21.80;100608.00;;;;10515935;28;20226;-82
2023/07/05 12:25:52;;;;;;;5.50;1.65;;;;;23.50;100612.00;;;;10474203;28;20212;-82
2023/07/05 12:30:58;;;;;;;4.85;1.80;;;;;23.30;100621.00;;;;10506998;28;20617;-83
2023/07/05 12:36:16;;;;;;;8.52;1.92;;;;;23.40;100618.00;;;;10515679;28;20671;-82
2023/07/05 12:41:24;;;;;;;7.28;2.35;;;;;23.70;100616.00;;;;10521829;28;20192;-83
2023/07/05 12:46:31;;;;;;;4.15;2.00;;;;;23.30;100636.00;;;;10524548;28;20309;-82
2023/07/05 12:51:32;;;;;;;5.65;2.30;;;;;24.70;100612.00;;;;10507259;28;20299;-82
2023/07/05 12:56:37;;;;;;;6.72;2.38;;;;;26.90;100628.00;;;;10480033;28;20195;-83
2023/07/05 13:01:41;;;;;;;5.82;2.45;;;;;26.40;100634.00;;;;10509365;28;20201;-82
2023/07/05 13:06:44;;;;;;;4.38;2.05;;;;;24.90;100630.00;;;;10526500;28;20226;-83
2023/07/05 13:11:58;;;;;;;5.35;2.03;;;;;23.90;100629.00;;;;10507234;28;20216;-82
2023/07/05 13:17:10;;;;;;;5.28;2.22;;;;;24.30;100617.00;;;;10533727;28;20197;-82
2023/07/05 13:22:26;;;;;;;4.13;1.95;;;;;26.80;100620.00;;;;10488400;28;20566;-82
2023/07/05 13:27:35;;;;;;;4.38;2.25;;;;;27.10;100630.00;;;;10502266;28;20303;-83
2023/07/05 13:32:42;;;;;;;6.65;2.25;;;;;25.90;100636.00;;;;10430170;28;20201;-83
2023/07/05 13:37:43;;;;;;;6.55;2.13;;;;;25.40;100631.00;;;;10413714;28;20669;-84
2023/07/05 13:42:47;;;;;;;3.22;2.10;;;;;25.50;100635.00;;;;10418164;28;20202;-83
2023/07/05 13:47:49;;;;;;;4.47;2.00;;;;;25.20;100644.00;;;;10425503;28;20248;-82
2023/07/05 13:52:50;;;;;;;4.53;1.83;;;;;24.60;100660.00;;;;10439939;28;20218;-83
2023/07/05 13:58:00;;;;;;;5.85;2.22;;;;;24.20;100673.00;;;;10448260;28;20202;-84
2023/07/05 14:03:01;;;;;;;2.05;1.00;;;;;24.10;100698.00;;;;10450353;28;20210;-83
2023/07/05 14:08:07;;;;;;;2.28;1.30;;;;;23.90;100705.00;;;;10430314;28;20244;-81
2023/07/05 14:13:14;;;;;;;3.58;1.35;;;;;23.10;100713.00;;;;10445477;28;20648;-83
2023/07/05 14:18:17;;;;;;;4.35;1.70;;;;;22.40;100714.00;;;;10449569;28;20568;-82
2023/07/05 14:23:19;;;;;;;5.88;1.73;;;;;22.70;100705.00;;;;10447090;28;20202;-84
2023/07/05 14:28:21;;;;;;;2.17;1.52;;;;;24.70;100701.00;;;;10433077;28;20696;-82
2023/07/05 14:33:22;;;;;;;3.40;1.70;;;;;24.80;100711.00;;;;10454698;28;20198;-82
2023/07/05 14:38:23;;;;;;;3.33;1.30;;;;;25.10;100704.00;;;;10441270;28;20240;-83
2023/07/05 14:43:25;;;;;;;2.85;1.55;;;;;25.40;100705.00;;;;10448223;28;20202;-83
2023/07/05 14:48:33;;;;;;;6.25;1.90;;;;;24.90;100708.00;;;;10440435;28;20203;-84
2023/07/05 14:53:35;;;;;;;2.67;1.40;;;;;25.00;100721.00;;;;10433931;28;20576;-83
2023/07/05 14:58:36;;;;;;;4.22;1.67;;;;;24.80;100729.00;;;;10431262;28;20206;-82
2023/07/05 15:03:40;;;;;;;3.70;1.48;;;;;25.20;100736.00;;;;10437313;28;20260;-81
2023/07/05 15:08:42;;;;;;;3.05;1.42;;;;;24.80;100737.00;;;;10438348;28;20202;-82
2023/07/05 15:13:45;;;;;;;7.35;2.28;;;;;24.70;100731.00;;;;10442353;28;20692;-82
2023/07/05 15:18:47;;;;;;;2.63;1.75;;;;;24.10;100747.00;;;;10454141;28;20206;-82
2023/07/05 15:23:53;;;;;;;4.93;1.98;;;;;24.20;100740.00;;;;10445269;28;20268;-81
2023/07/05 15:28:55;;;;;;;2.85;1.50;;;;;24.10;100748.00;;;;10423822;28;20203;-82
2023/07/05 15:33:56;;;;;;;3.92;1.63;;;;;23.60;100745.00;;;;10420034;28;20199;-81
2023/07/05 15:38:58;;;;;;;4.35;1.85;;;;;23.00;100740.00;;;;10418301;28;20336;-81
2023/07/05 15:44:00;;;;;;;4.75;1.67;;;;;22.90;100742.00;;;;10419602;28;20219;-81
2023/07/05 15:49:02;;;;;;;2.30;1.30;;;;;23.00;100748.00;;;;10430955;28;20198;-82
2023/07/05 15:54:05;;;;;;;5.00;1.65;;;;;23.10;100744.00;;;;10404310;28;20297;-80
2023/07/05 15:59:12;;;;;;;2.70;1.60;;;;;23.80;100742.00;;;;10402250;28;20222;-81
2023/07/05 16:04:13;;;;;;;4.45;1.40;;;;;23.10;100749.00;;;;10419575;28;20270;-82
2023/07/05 16:09:16;;;;;;;4.18;1.73;;;;;22.30;100737.00;;;;10420781;28;20241;-82
2023/07/05 16:14:17;;;;;;;5.43;1.60;;;;;22.30;100736.00;;;;10402871;28;20207;-80
2023/07/05 16:19:19;;;;;;;5.63;1.80;;;;;22.50;100735.00;;;;10452781;28;20212;-81
2023/07/05 16:24:20;;;;;;;6.72;2.47;;;;;22.80;100744.00;;;;10458840;28;20241;-81
2023/07/05 16:29:22;;;;;;;5.40;2.00;;;;;23.00;100744.00;;;;10458664;28;20206;-79
2023/07/05 16:34:26;;;;;;;4.70;2.10;;;;;23.10;100739.00;;;;10456340;28;20198;-81
2023/07/05 16:39:28;;;;;;;4.28;2.15;;;;;22.90;100745.00;;;;10433076;28;20240;-80
2023/07/05 16:44:29;;;;;;;5.65;1.67;;;;;22.40;100744.00;;;;10431974;28;20218;-78
2023/07/05 16:49:31;;;;;;;5.28;1.42;;;;;21.80;100767.00;;;;10434794;28;20679;-81
2023/07/05 16:54:32;;;;;;;4.43;1.60;;;;;21.50;100768.00;;;;10437217;28;20675;-81
2023/07/05 16:59:35;;;;;;;4.53;1.50;;;;;21.50;100774.00;;;;10442959;28;20217;-81
2023/07/05 17:04:36;;;;;;;5.25;2.03;;;;;21.30;100781.00;;;;10443981;28;20214;-81
2023/07/05 17:09:37;;;;;;;3.20;1.35;;;;;21.90;100776.00;;;;10445139;28;20195;-80
2023/07/05 17:14:39;;;;;;;5.85;1.77;;;;;21.80;100785.00;;;;10422814;28;20672;-81
2023/07/05 17:19:40;;;;;;;3.25;1.55;;;;;22.30;100797.00;;;;10441881;28;20209;-82
2023/07/05 17:24:41;;;;;;;1.83;1.15;;;;;21.60;100802.00;;;;10411566;28;20676;-81
2023/07/05 17:29:42;;;;;;;5.90;1.80;;;;;20.50;100822.00;;;;10425796;28;20206;-80
2023/07/05 17:34:44;;;;;;;2.20;1.30;;;;;20.10;100815.00;;;;10466526;28;20244;-82
2023/07/05 17:39:45;;;;;;;4.13;1.63;;;;;19.30;100832.00;;;;10452884;28;20198;-81
2023/07/05 17:44:46;;;;;;;2.60;1.67;;;;;19.00;100848.00;;;;10430222;28;20579;-80
2023/07/05 17:49:47;;;;;;;4.15;1.92;;;;;18.80;100853.00;;;;10448022;28;20236;-80
2023/07/05 17:54:49;;;;;;;3.80;1.88;;;;;18.30;100868.00;;;;10455040;28;20706;-79
2023/07/05 17:59:50;;;;;;;4.00;1.95;;;;;18.30;100871.00;;;;10441685;28;20285;-80
2023/07/05 18:04:51;;;;;;;3.85;1.80;;;;;18.20;100878.00;;;;10439701;28;20206;-81
2023/07/05 18:09:53;;;;;;;2.33;1.40;;;;;18.00;100878.00;;;;10419559;28;20198;-80
2023/07/05 18:14:54;;;;;;;3.00;1.70;;;;;17.70;100886.00;;;;10436464;28;20186;-80
2023/07/05 18:19:56;;;;;;;2.65;1.77;;;;;17.80;100893.00;;;;10415019;28;20230;-80
2023/07/05 18:24:57;;;;;;;3.40;1.92;;;;;17.70;100887.00;;;;10436168;28;20221;-80
2023/07/05 18:29:58;;;;;;;2.85;1.60;;;;;17.70;100894.00;;;;10444277;28;20272;-80
2023/07/05 18:34:59;;;;;;;3.28;1.75;;;;;17.70;100901.00;;;;10442257;28;20210;-81
2023/07/05 18:40:01;;;;;;;3.08;1.80;;;;;17.40;100910.00;;;;10432933;28;20229;-80
2023/07/05 18:45:07;;;;;;;2.58;1.70;;;;;17.40;100916.00;;;;10417176;28;20214;-80
2023/07/05 18:50:08;;;;;;;3.67;1.73;;;;;17.40;100917.00;;;;10429837;28;20206;-80
2023/07/05 18:55:10;;;;;;;2.15;1.50;;;;;17.20;100916.00;;;;10453088;28;20674;-81
2023/07/05 19:00:12;;;;;;;3.03;1.98;;;;;17.00;100929.00;;;;10436247;28;20201;-80
2023/07/05 19:05:14;;;;;;;3.83;2.00;;;;;16.90;100930.00;;;;10457590;28;20244;-80
2023/07/05 19:10:17;;;;;;;4.47;2.00;;;;;16.70;100943.00;;;;10439900;28;20606;-80
2023/07/05 19:15:18;;;;;;;5.25;2.30;;;;;16.60;100944.00;;;;10407086;28;20313;-80
2023/07/05 19:20:20;;;;;;;3.17;2.10;;;;;16.50;100953.00;;;;10442806;28;20564;-81
2023/07/05 19:25:21;;;;;;;5.43;2.03;;;;;16.40;100947.00;;;;10427196;28;20225;-81
2023/07/05 19:30:22;;;;;;;5.40;2.50;;;;;16.30;100956.00;;;;10410510;28;20679;-80
2023/07/05 19:35:24;;;;;;;4.50;2.60;;;;;16.10;100944.00;;;;10434676;28;20198;-80
2023/07/05 19:40:26;;;;;;;4.50;2.55;;;;;16.00;100963.00;;;;10434372;28;20668;-80
2023/07/05 19:45:38;;;;;;;4.28;2.40;;;;;15.80;100964.00;;;;10437786;28;20219;-80
2023/07/05 19:50:39;;;;;;;7.57;2.55;;;;;15.60;100978.00;;;;10457898;28;20209;-82
2023/07/05 19:55:45;;;;;;;5.82;2.60;;;;;15.40;100983.00;;;;10432576;28;20214;-81
2023/07/05 20:00:46;;;;;;;6.50;3.35;;;;;15.30;100985.00;;;;10452015;28;20202;-80
2023/07/05 20:05:48;;;;;;;3.80;2.95;;;;;15.10;100987.00;;;;10430032;28;20623;-80
2023/07/05 20:10:49;;;;;;;4.80;2.80;;;;;15.00;100988.00;;;;10449928;28;20256;-80
2023/07/05 20:15:58;;;;;;;5.97;2.75;;;;;14.90;100990.00;;;;10430541;28;20210;-81
2023/07/05 20:21:00;;;;;;;6.00;3.00;;;;;14.80;100998.00;;;;10429513;28;20202;-81
2023/07/05 20:26:12;;;;;;;7.00;3.13;;;;;14.70;100997.00;;;;10424105;28;20222;-80
2023/07/05 20:31:13;;;;;;;5.70;2.50;;;;;14.60;100997.00;;;;10443628;28;20200;-82
2023/07/05 20:36:15;;;;;;;4.93;2.63;;;;;14.60;101007.00;;;;10444835;28;20213;-80
2023/07/05 20:41:16;;;;;;;9.27;2.23;;;;;14.80;101013.00;;;;10391478;28;20208;-80
2023/07/05 20:46:18;;;;;;;3.70;1.73;;;;;14.90;101017.00;;;;10439635;28;20213;-79
2023/07/05 20:51:21;;;;;;;5.07;2.00;;;;;15.00;101026.00;;;;10427468;28;20569;-81
2023/07/05 20:56:22;;;;;;;5.65;2.33;;;;;15.10;101027.00;;;;10442247;28;20198;-81
2023/07/05 21:01:24;;;;;;;6.73;1.73;;;;;15.20;101031.00;;;;10458579;28;20253;-81
2023/07/05 21:06:25;;;;;;;3.85;1.67;;;;;15.20;101033.00;;;;10407027;28;20309;-80
2023/07/05 21:11:29;;;;;;;3.63;1.70;;;;;15.20;101021.00;;;;10424531;28;20565;-82
2023/07/05 21:16:31;;;;;;;3.80;1.85;;;;;15.20;101033.00;;;;10395924;28;20223;-80
2023/07/05 21:21:38;;;;;;;9.07;2.00;;;;;15.30;101037.00;;;;10444236;28;20198;-84
2023/07/05 21:26:40;;;;;;;4.93;1.60;;;;;15.20;101046.00;;;;10445100;28;20307;-81
2023/07/05 21:31:41;;;;;;;9.37;1.77;;;;;15.00;101051.00;;;;10445111;28;20214;-81
2023/07/05 21:36:44;;;;;;;4.15;1.98;;;;;14.80;101050.00;;;;10443632;28;20294;-82
2023/07/05 21:41:46;;;;;;;8.47;2.03;;;;;14.80;101057.00;;;;10449388;28;20206;-81
2023/07/05 21:46:47;;;;;;;6.00;2.10;;;;;14.70;101061.00;;;;10439947;28;20560;-82
2023/07/05 21:51:50;;;;;;;8.20;2.65;;;;;14.70;101062.00;;;;10436015;28;20202;-81
2023/07/05 21:56:51;;;;;;;5.43;2.10;;;;;14.70;101070.00;;;;10418426;28;20209;-81
2023/07/05 22:01:52;;;;;;;4.40;2.30;;;;;14.60;101071.00;;;;10451755;28;20579;-80
2023/07/05 22:06:57;;;;;;;5.38;1.90;;;;;14.60;101074.00;;;;10429691;28;20218;-81
2023/07/05 22:11:58;;;;;;;9.07;2.50;;;;;14.50;101079.00;;;;10404662;28;20198;-81
2023/07/05 22:17:00;;;;;;;5.67;2.27;;;;;14.40;101081.00;;;;10449801;28;20202;-82
2023/07/05 22:22:04;;;;;;;6.57;1.90;;;;;14.40;101080.00;;;;10453234;28;20222;-80
2023/07/05 22:27:06;;;;;;;9.43;1.70;;;;;14.30;101079.00;;;;10419730;28;20225;-81
2023/07/05 22:32:08;;;;;;;7.60;2.03;;;;;14.20;101085.00;;;;10406932;28;20221;-81
2023/07/05 22:37:10;;;;;;;3.83;1.83;;;;;14.20;101084.00;;;;10447565;28;20262;-81
2023/07/05 22:42:11;;;;;;;8.83;2.20;;;;;14.20;101087.00;;;;10442623;28;20204;-81
2023/07/05 22:47:12;;;;;;;7.53;2.13;;;;;14.30;101089.00;;;;10452621;28;20213;-81
2023/07/05 22:52:14;;;;;;;5.60;2.27;;;;;14.30;101091.00;;;;10433152;28;20548;-81
2023/07/05 22:57:17;;;;;;;7.60;2.70;;;;;14.30;101085.00;;;;10427758;28;20236;-80
2023/07/05 23:02:22;;;;;;;5.50;2.70;;;;;14.30;101091.00;;;;10428559;28;20213;-81
2023/07/05 23:07:23;;;;;;;5.77;2.10;;;;;14.30;101090.00;;;;10426392;28;20675;-81
2023/07/05 23:12:25;;;;;;;7.00;2.30;;;;;14.20;101081.00;;;;10460835;28;20272;-81
2023/07/05 23:17:27;;;;;;;9.97;2.80;;;;;14.20;101088.00;;;;10436199;28;20198;-81
2023/07/05 23:22:28;;;;;;;6.10;2.53;;;;;14.20;101087.00;;;;10388623;28;20202;-81
2023/07/05 23:27:29;;;;;;;5.37;2.40;;;;;14.20;101095.00;;;;10420945;28;20225;-81
2023/07/05 23:32:30;;;;;;;9.23;2.60;;;;;14.20;101093.00;;;;10421255;28;20198;-82
2023/07/05 23:37:32;;;;;;;9.90;2.13;;;;;14.20;101091.00;;;;10419820;28;20205;-81
2023/07/05 23:42:35;;;;;;;4.20;2.43;;;;;14.20;101091.00;;;;10445795;28;20662;-82
2023/07/05 23:47:36;;;;;;;3.13;1.80;;;;;14.10;101090.00;;;;10441865;28;20214;-84
2023/07/05 23:52:39;;;;;;;10.63;4.10;;;;;14.10;101094.00;;;;10458376;28;20202;-82
2023/07/05 23:57:41;;;;;;;6.00;2.00;;;;;14.00;101086.00;;;;10455370;28;20237;-82
